createdAt,value
2023-04-01T15:57:19.132Z,1.25
2023-04-01T15:58:22.460Z,0.50
2023-04-01T15:59:25.954Z,2.50
2023-04-01T16:00:29.319Z,1.50
2023-04-01T16:01:32.261Z,0.50
2023-04-01T16:02:41.632Z,1.25
2023-04-01T16:03:47.123Z,0.50
2023-04-01T16:04:50.460Z,2.00
2023-04-01T16:05:53.734Z,1.50
2023-04-01T16:06:57.734Z,2.50
2023-04-01T16:08:01.431Z,2.00
2023-04-01T16:09:05.234Z,0.00
2023-04-01T16:10:08.258Z,1.50
2023-04-01T16:11:11.375Z,2.50
2023-04-01T16:12:14.967Z,1.50
2023-04-01T16:13:18.563Z,1.00
2023-04-01T16:14:22.869Z,1.50
2023-04-01T16:15:26.372Z,1.50
2023-04-01T16:16:29.481Z,1.00
2023-04-01T16:17:32.862Z,1.50
2023-04-01T16:18:36.112Z,3.00
2023-04-01T16:19:39.405Z,2.75
2023-04-01T16:20:42.673Z,1.50
2023-04-01T16:21:45.932Z,2.00
2023-04-01T16:22:49.509Z,3.75
2023-04-01T16:23:53.764Z,3.00
2023-04-01T16:24:56.969Z,2.00
2023-04-01T16:26:00.647Z,3.25
2023-04-01T16:27:04.190Z,3.50
2023-04-01T16:28:07.720Z,2.00
2023-04-01T16:29:11.212Z,2.00
2023-04-01T16:30:14.797Z,2.00
2023-04-01T16:31:18.622Z,3.25
2023-04-01T16:32:21.706Z,2.00
2023-04-01T16:33:25.378Z,1.50
2023-04-01T16:34:28.960Z,2.50
2023-04-01T16:35:32.481Z,2.00
2023-04-01T16:36:36.351Z,1.00
2023-04-01T16:37:39.724Z,1.00
2023-04-01T16:38:43.030Z,1.25
2023-04-01T16:39:46.197Z,1.00
2023-04-01T16:40:50.003Z,2.25
2023-04-01T16:41:53.084Z,2.75
2023-04-01T16:42:56.629Z,2.75
2023-04-01T16:44:00.262Z,3.25
2023-04-01T16:45:03.756Z,2.50
2023-04-01T16:46:07.341Z,1.50
2023-04-01T16:47:11.150Z,1.00
2023-04-01T16:48:14.335Z,1.25
2023-04-01T16:49:18.381Z,0.00
2023-04-01T16:50:21.647Z,1.00
2023-04-01T16:51:25.502Z,3.00
2023-04-01T16:53:49.305Z,2.00
2023-04-01T16:54:53.072Z,3.00
2023-04-01T16:55:56.652Z,1.25
2023-04-01T16:57:00.367Z,1.00
2023-04-01T16:58:03.637Z,1.00
2023-04-01T16:59:11.630Z,0.00
2023-04-01T17:00:16.755Z,1.50
2023-04-01T17:01:19.928Z,2.00
2023-04-01T17:03:44.224Z,1.50
2023-04-01T17:04:55.843Z,3.75
2023-04-01T17:06:00.157Z,3.25
2023-04-01T17:07:03.613Z,1.50
2023-04-01T17:08:08.446Z,2.25
2023-04-01T17:09:11.719Z,2.50
2023-04-01T17:10:28.733Z,4.00
2023-04-01T17:11:32.114Z,3.00
2023-04-01T17:12:36.099Z,2.00
2023-04-01T17:13:39.592Z,2.00
2023-04-01T17:14:43.083Z,3.00
2023-04-01T17:15:48.894Z,3.00
2023-04-01T17:16:52.257Z,1.00
2023-04-01T17:18:00.719Z,1.00
2023-04-01T17:19:11.905Z,1.00
2023-04-01T17:20:15.591Z,0.75
2023-04-01T17:21:21.641Z,2.00
2023-04-01T17:22:40.176Z,1.25
2023-04-01T17:23:44.279Z,2.00
2023-04-01T17:24:47.859Z,2.00
2023-04-01T17:25:51.561Z,0.75
2023-04-01T17:26:56.985Z,1.50
2023-04-01T17:28:01.012Z,0.50
2023-04-01T17:30:26.096Z,0.50
2023-04-01T17:32:58.457Z,2.25
2023-04-01T17:34:17.548Z,1.75
2023-04-01T17:36:42.595Z,3.00
2023-04-01T17:37:52.248Z,2.25
2023-04-01T17:38:56.014Z,1.00
2023-04-01T17:40:05.578Z,2.50
2023-04-01T17:41:09.681Z,5.50
2023-04-01T17:42:13.794Z,3.50
2023-04-01T17:43:17.497Z,3.00
2023-04-01T17:44:23.954Z,3.50
2023-04-01T17:45:27.960Z,1.50
2023-04-01T17:46:30.892Z,2.00
2023-04-01T17:47:34.337Z,2.50
2023-04-01T17:48:40.332Z,2.50
2023-04-01T17:49:44.452Z,1.50
2023-04-01T17:50:47.875Z,1.50
2023-04-01T17:51:52.060Z,1.00
2023-04-01T17:52:59.038Z,1.00
2023-04-01T17:54:06.151Z,1.50
2023-04-01T17:55:11.878Z,1.00
2023-04-01T17:56:17.383Z,1.00
2023-04-01T17:57:21.942Z,1.50
2023-04-01T17:58:25.472Z,1.50
2023-04-01T17:59:29.586Z,2.00
2023-04-01T18:00:53.428Z,1.50
2023-04-01T18:03:13.773Z,2.50
2023-04-01T18:04:22.586Z,1.00
2023-04-01T18:05:26.444Z,2.00
2023-04-01T18:06:29.842Z,3.00
2023-04-01T18:07:33.750Z,2.00
2023-04-01T18:08:37.527Z,1.50
2023-04-01T18:09:41.636Z,2.50
2023-04-01T18:10:45.348Z,2.00
2023-04-01T18:11:49.324Z,1.50
2023-04-01T18:12:54.655Z,2.50
2023-04-01T18:13:58.580Z,1.50
2023-04-01T18:15:02.574Z,1.75
2023-04-01T18:16:06.667Z,3.25
2023-04-01T18:17:10.079Z,2.00
2023-04-01T18:18:13.537Z,2.00
2023-04-01T18:19:18.055Z,2.25
2023-04-01T18:20:21.848Z,3.00
2023-04-01T18:21:24.932Z,3.00
2023-04-01T18:22:28.736Z,2.50
2023-04-01T18:24:52.799Z,4.50
2023-04-01T18:25:56.800Z,1.50
2023-04-01T18:27:00.802Z,1.50
2023-04-01T18:28:09.396Z,2.00
2023-04-01T18:29:12.917Z,2.50
2023-04-01T18:30:21.314Z,2.50
2023-04-01T18:31:27.614Z,2.00
2023-04-01T18:32:36.976Z,2.00
2023-04-01T18:33:42.642Z,1.25
2023-04-01T18:36:07.174Z,2.00
2023-04-01T18:37:11.635Z,1.75
2023-04-01T18:38:15.935Z,2.25
2023-04-01T18:39:19.746Z,0.75
2023-04-01T18:40:27.214Z,0.75
2023-04-01T18:42:51.802Z,1.75
2023-04-01T18:43:59.572Z,1.00
2023-04-01T18:45:06.059Z,1.00
2023-04-01T18:46:15.435Z,3.00
2023-04-01T18:47:24.862Z,2.00
2023-04-01T18:48:31.392Z,1.50
2023-04-01T18:49:36.407Z,0.00
2023-04-01T18:50:42.872Z,1.50
2023-04-01T18:51:52.836Z,3.50
2023-04-01T18:55:44.455Z,2.00
2023-04-01T18:58:21.244Z,1.50
2023-04-01T18:59:33.933Z,3.00
2023-04-01T19:00:39.634Z,1.75
2023-04-01T19:01:42.513Z,1.50
2023-04-01T19:04:07.534Z,1.25
2023-04-01T19:05:12.155Z,1.00
2023-04-01T19:06:17.469Z,1.50
2023-04-01T19:08:51.786Z,2.25
2023-04-01T19:09:57.046Z,1.50
2023-04-01T19:11:10.148Z,3.50
2023-04-01T19:13:42.198Z,5.50
2023-04-01T19:16:18.151Z,1.00
2023-04-01T19:18:42.759Z,2.50
2023-04-01T19:21:09.514Z,2.00
2023-04-01T19:22:23.477Z,1.00
2023-04-01T19:23:34.538Z,1.75
2023-04-01T19:24:41.280Z,3.25
2023-04-01T19:27:20.607Z,1.00
2023-04-01T19:28:27.170Z,2.75
2023-04-01T19:29:33.103Z,3.00
2023-04-01T19:30:43.378Z,3.00
2023-04-01T19:31:47.348Z,3.50
2023-04-01T19:32:50.807Z,1.75
2023-04-01T19:33:54.443Z,3.50
2023-04-01T19:34:58.133Z,3.50
2023-04-01T19:37:23.132Z,4.50
2023-04-01T19:38:26.827Z,3.50
2023-04-01T19:39:30.623Z,3.00
2023-04-01T19:40:35.915Z,1.75
2023-04-01T19:44:27.214Z,3.00
2023-04-01T19:45:36.420Z,2.50
2023-04-01T19:46:40.352Z,2.00
2023-04-01T19:50:27.859Z,1.75
2023-04-01T19:51:37.846Z,1.25
2023-04-01T19:52:43.132Z,2.50
2023-04-01T19:53:51.388Z,1.00
2023-04-01T19:55:00.139Z,0.00
2023-04-01T19:57:26.002Z,2.00
2023-04-01T19:58:34.464Z,0.50
2023-04-01T19:59:42.459Z,1.00
2023-04-01T20:00:54.641Z,1.75
2023-04-01T20:02:07.691Z,2.00
2023-04-01T20:03:20.563Z,2.00
2023-04-01T20:04:37.202Z,2.25
2023-04-01T20:49:19.310Z,3.75
2023-04-01T21:11:41.133Z,4.00
2023-04-01T21:12:55.108Z,5.50
2023-04-01T21:13:59.482Z,5.00
2023-04-01T21:15:14.126Z,5.25
2023-04-01T21:16:24.891Z,7.75
2023-04-01T21:17:35.674Z,6.00
2023-04-01T21:18:49.903Z,7.75
2023-04-01T21:21:18.793Z,6.00
2023-04-01T21:22:26.481Z,9.50
2023-04-01T21:23:45.745Z,6.50
2023-04-01T21:28:57.443Z,5.50
2023-04-01T21:30:09.731Z,3.00
2023-04-01T21:34:01.329Z,4.00
2023-04-01T21:36:46.297Z,4.50
2023-04-01T21:37:50.179Z,4.50
2023-04-01T21:40:18.112Z,4.00
2023-04-01T21:41:29.515Z,5.50
2023-04-01T21:43:58.995Z,2.50
2023-04-01T21:46:36.395Z,3.50
2023-04-01T21:49:19.907Z,5.00
2023-04-01T21:50:30.593Z,3.75
2023-04-01T21:55:39.873Z,3.50
2023-04-01T21:58:12.967Z,3.50
2023-04-01T21:59:22.368Z,4.50
2023-04-01T22:00:31.519Z,3.50
2023-04-01T22:01:35.336Z,5.25
2023-04-01T22:06:50.856Z,3.50
2023-04-01T22:10:39.360Z,2.25
2023-04-01T22:13:18.993Z,3.50
2023-04-01T22:43:33.924Z,5.50
2023-04-01T22:44:38.022Z,3.75
2023-04-01T22:45:43.044Z,4.00
2023-04-01T22:46:46.842Z,2.50
2023-04-01T22:50:36.408Z,2.50
2023-04-01T22:53:19.021Z,1.25
2023-04-01T22:54:22.127Z,4.25
2023-04-01T22:55:25.924Z,2.25
2023-04-01T22:56:31.051Z,4.75
2023-04-01T22:57:34.754Z,5.00
2023-04-01T22:58:41.738Z,4.00
2023-04-01T22:59:45.768Z,2.50
2023-04-01T23:00:50.663Z,2.00
2023-04-01T23:01:54.312Z,4.50
2023-04-01T23:02:59.302Z,6.00
2023-04-01T23:04:05.012Z,4.50
2023-04-01T23:05:10.947Z,4.00
2023-04-01T23:06:15.665Z,2.00
2023-04-01T23:07:19.557Z,3.50
2023-04-01T23:08:22.835Z,5.00
2023-04-01T23:09:26.538Z,2.50
2023-04-01T23:10:30.152Z,2.00
2023-04-01T23:11:33.448Z,3.00
2023-04-01T23:12:37.168Z,1.50
2023-04-01T23:13:41.128Z,2.50
2023-04-01T23:14:45.938Z,3.50
2023-04-01T23:17:13.289Z,2.75
2023-04-01T23:18:19.429Z,1.50
2023-04-01T23:20:55.681Z,1.00
2023-04-01T23:23:19.598Z,3.00
2023-04-01T23:25:49.573Z,1.50
2023-04-01T23:44:40.663Z,4.00
2023-04-01T23:49:59.096Z,1.50
2023-04-01T23:52:35.067Z,3.50
